sensor_id;sensor_type;location;lat;lon;timestamp;pressure;altitude;pressure_sealevel;temperature;humidity
4528;BME280;62320;51.520;6.818;2023-02-02T00:08:07;101575.94;;;5.94;100.00
4528;BME280;62320;51.520;6.818;2023-02-02T00:18:09;101574.66;;;6.06;100.00
4528;BME280;62320;51.520;6.818;2023-02-02T00:28:10;101570.72;;;6.17;100.00
4528;BME280;62320;51.520;6.818;2023-02-02T00:38:12;101564.97;;;6.26;100.00
4528;BME280;62320;51.520;6.818;2023-02-02T00:48:13;101582.50;;;6.39;100.00
4528;BME280;62320;51.520;6.818;2023-02-02T00:58:15;101578.50;;;6.48;100.00
4528;BME280;62320;51.520;6.818;2023-02-02T01:08:16;101580.47;;;6.57;100.00
4528;BME280;62320;51.520;6.818;2023-02-02T01:18:18;101565.13;;;6.60;100.00
4528;BME280;62320;51.520;6.818;2023-02-02T01:28:19;101566.22;;;6.68;100.00
4528;BME280;62320;51.520;6.818;2023-02-02T01:38:22;101575.03;;;6.76;100.00
4528;BME280;62320;51.520;6.818;2023-02-02T01:48:31;101586.47;;;6.87;100.00
4528;BME280;62320;51.520;6.818;2023-02-02T01:58:37;101591.03;;;6.97;100.00
4528;BME280;62320;51.520;6.818;2023-02-02T02:08:46;101599.75;;;7.02;100.00
4528;BME280;62320;51.520;6.818;2023-02-02T02:39:56;101601.53;;;7.05;100.00
4528;BME280;62320;51.520;6.818;2023-02-02T02:50:02;101598.03;;;7.01;100.00
4528;BME280;62320;51.520;6.818;2023-02-02T03:00:17;101603.09;;;7.00;100.00
4528;BME280;62320;51.520;6.818;2023-02-02T03:10:24;101612.56;;;7.01;100.00
4528;BME280;62320;51.520;6.818;2023-02-02T03:20:27;101591.16;;;7.02;100.00
4528;BME280;62320;51.520;6.818;2023-02-02T03:30:29;101594.56;;;7.01;100.00
4528;BME280;62320;51.520;6.818;2023-02-02T03:40:30;101602.31;;;7.02;100.00
4528;BME280;62320;51.520;6.818;2023-02-02T03:50:32;101595.50;;;7.04;100.00
4528;BME280;62320;51.520;6.818;2023-02-02T04:00:34;101601.44;;;7.02;100.00
4528;BME280;62320;51.520;6.818;2023-02-02T04:10:35;101605.81;;;7.04;100.00
4528;BME280;62320;51.520;6.818;2023-02-02T04:20:38;101601.53;;;7.05;100.00
4528;BME280;62320;51.520;6.818;2023-02-02T04:30:40;101602.44;;;7.07;100.00
4528;BME280;62320;51.520;6.818;2023-02-02T04:40:44;101602.44;;;7.07;100.00
4528;BME280;62320;51.520;6.818;2023-02-02T04:50:46;101602.50;;;7.08;100.00
4528;BME280;62320;51.520;6.818;2023-02-02T05:00:47;101598.34;;;7.13;100.00
4528;BME280;62320;51.520;6.818;2023-02-02T05:10:49;101593.25;;;7.15;100.00
4528;BME280;62320;51.520;6.818;2023-02-02T05:20:51;101589.94;;;7.19;100.00
4528;BME280;62320;51.520;6.818;2023-02-02T05:30:52;101595.19;;;7.24;100.00
4528;BME280;62320;51.520;6.818;2023-02-02T05:40:54;101607.31;;;7.28;100.00
4528;BME280;62320;51.520;6.818;2023-02-02T05:51:04;101609.94;;;7.29;100.00
4528;BME280;62320;51.520;6.818;2023-02-02T06:01:07;101614.31;;;7.33;100.00
4528;BME280;62320;51.520;6.818;2023-02-02T06:11:15;101623.03;;;7.38;100.00
4528;BME280;62320;51.520;6.818;2023-02-02T06:21:18;101624.00;;;7.43;100.00
4528;BME280;62320;51.520;6.818;2023-02-02T06:31:23;101624.88;;;7.44;100.00
4528;BME280;62320;51.520;6.818;2023-02-02T06:41:25;101645.56;;;7.47;100.00
4528;BME280;62320;51.520;6.818;2023-02-02T06:51:26;101656.09;;;7.56;100.00
4528;BME280;62320;51.520;6.818;2023-02-02T07:01:28;101645.81;;;7.56;100.00
4528;BME280;62320;51.520;6.818;2023-02-02T07:11:31;101654.41;;;7.56;100.00
4528;BME280;62320;51.520;6.818;2023-02-02T07:21:41;101664.63;;;7.55;100.00
4528;BME280;62320;51.520;6.818;2023-02-02T07:31:43;101668.97;;;7.56;100.00
4528;BME280;62320;51.520;6.818;2023-02-02T07:41:45;101664.69;;;7.56;100.00
4528;BME280;62320;51.520;6.818;2023-02-02T07:51:46;101669.78;;;7.55;100.00
4528;BME280;62320;51.520;6.818;2023-02-02T08:01:49;101695.59;;;7.56;100.00
4528;BME280;62320;51.520;6.818;2023-02-02T08:11:51;101706.03;;;7.62;100.00
4528;BME280;62320;51.520;6.818;2023-02-02T08:21:53;101716.31;;;7.62;100.00
4528;BME280;62320;51.520;6.818;2023-02-02T08:31:55;101725.78;;;7.63;100.00
4528;BME280;62320;51.520;6.818;2023-02-02T08:41:56;101726.66;;;7.64;100.00
4528;BME280;62320;51.520;6.818;2023-02-02T08:51:58;101737.91;;;7.67;100.00
4528;BME280;62320;51.520;6.818;2023-02-02T09:02:03;101749.88;;;7.65;100.00
4528;BME280;62320;51.520;6.818;2023-02-02T09:12:04;101766.31;;;7.70;100.00
4528;BME280;62320;51.520;6.818;2023-02-02T09:22:06;101780.06;;;7.71;100.00
4528;BME280;62320;51.520;6.818;2023-02-02T09:32:08;101800.69;;;7.72;100.00
4528;BME280;62320;51.520;6.818;2023-02-02T09:42:16;101831.66;;;7.75;100.00
4528;BME280;62320;51.520;6.818;2023-02-02T09:52:25;101847.16;;;7.77;100.00
4528;BME280;62320;51.520;6.818;2023-02-02T10:02:40;101848.03;;;7.77;100.00
4528;BME280;62320;51.520;6.818;2023-02-02T10:12:59;101848.13;;;7.80;100.00
4528;BME280;62320;51.520;6.818;2023-02-02T10:23:33;101867.06;;;7.82;100.00
4528;BME280;62320;51.520;6.818;2023-02-02T10:33:37;101873.25;;;7.89;100.00
4528;BME280;62320;51.520;6.818;2023-02-02T10:53:57;101876.06;;;7.97;100.00
4528;BME280;62320;51.520;6.818;2023-02-02T11:04:00;101889.09;;;8.03;100.00
4528;BME280;62320;51.520;6.818;2023-02-02T11:14:49;101890.09;;;8.08;100.00
4528;BME280;62320;51.520;6.818;2023-02-02T11:24:53;101901.34;;;8.11;100.00
4528;BME280;62320;51.520;6.818;2023-02-02T11:45:03;101889.56;;;8.19;100.00
4528;BME280;62320;51.520;6.818;2023-02-02T11:55:13;101880.28;;;8.24;100.00
4528;BME280;62320;51.520;6.818;2023-02-02T12:26:27;101896.75;;;8.29;100.00
4528;BME280;62320;51.520;6.818;2023-02-02T12:36:40;101901.03;;;8.29;100.00
4528;BME280;62320;51.520;6.818;2023-02-02T13:07:40;101863.25;;;8.29;100.00
4528;BME280;62320;51.520;6.818;2023-02-02T13:17:54;101884.72;;;8.30;100.00
4528;BME280;62320;51.520;6.818;2023-02-02T13:27:58;101893.97;;;8.23;100.00
4528;BME280;62320;51.520;6.818;2023-02-02T13:38:27;101906.81;;;8.22;100.00
4528;BME280;62320;51.520;6.818;2023-02-02T13:59:13;101917.94;;;8.21;100.00
4528;BME280;62320;51.520;6.818;2023-02-02T14:09:18;101903.28;;;8.18;100.00
4528;BME280;62320;51.520;6.818;2023-02-02T15:00:26;101934.19;;;8.18;100.00
4528;BME280;62320;51.520;6.818;2023-02-02T15:10:55;101949.66;;;8.18;100.00
4528;BME280;62320;51.520;6.818;2023-02-02T15:20:59;101953.88;;;8.16;100.00
4528;BME280;62320;51.520;6.818;2023-02-02T15:31:13;101957.25;;;8.14;100.00
4528;BME280;62320;51.520;6.818;2023-02-02T15:51:19;101981.28;;;8.13;100.00
4528;BME280;62320;51.520;6.818;2023-02-02T16:01:24;101981.19;;;8.10;100.00
4528;BME280;62320;51.520;6.818;2023-02-02T16:11:26;102001.78;;;8.10;100.00
4528;BME280;62320;51.520;6.818;2023-02-02T16:21:28;102002.59;;;8.09;100.00
4528;BME280;62320;51.520;6.818;2023-02-02T16:31:30;102006.91;;;8.08;100.00
4528;BME280;62320;51.520;6.818;2023-02-02T16:41:33;102018.03;;;8.07;100.00
4528;BME280;62320;51.520;6.818;2023-02-02T16:51:35;102027.53;;;8.10;100.00
4528;BME280;62320;51.520;6.818;2023-02-02T17:01:40;102031.00;;;8.10;100.00
4528;BME280;62320;51.520;6.818;2023-02-02T17:22:41;102039.66;;;8.12;100.00
4528;BME280;62320;51.520;6.818;2023-02-02T17:32:43;102047.47;;;8.15;100.00
4528;BME280;62320;51.520;6.818;2023-02-02T17:42:47;102055.06;;;8.11;100.00
4528;BME280;62320;51.520;6.818;2023-02-02T17:52:50;102062.84;;;8.12;100.00
4528;BME280;62320;51.520;6.818;2023-02-02T18:03:14;102064.50;;;8.10;100.00
4528;BME280;62320;51.520;6.818;2023-02-02T18:13:19;102060.25;;;8.12;100.00
4528;BME280;62320;51.520;6.818;2023-02-02T18:23:21;102068.75;;;8.10;100.00
4528;BME280;62320;51.520;6.818;2023-02-02T18:33:24;102067.00;;;8.09;100.00
4528;BME280;62320;51.520;6.818;2023-02-02T18:43:26;102064.53;;;8.12;100.00
4528;BME280;62320;51.520;6.818;2023-02-02T18:53:27;102054.19;;;8.10;100.00
4528;BME280;62320;51.520;6.818;2023-02-02T19:03:29;102048.25;;;8.13;100.00
4528;BME280;62320;51.520;6.818;2023-02-02T19:13:30;102042.19;;;8.11;100.00
4528;BME280;62320;51.520;6.818;2023-02-02T19:23:32;102057.78;;;8.15;100.00
4528;BME280;62320;51.520;6.818;2023-02-02T19:33:46;102059.53;;;8.16;100.00
4528;BME280;62320;51.520;6.818;2023-02-02T19:43:55;102063.72;;;8.13;100.00
4528;BME280;62320;51.520;6.818;2023-02-02T19:53:59;102066.38;;;8.16;100.00
4528;BME280;62320;51.520;6.818;2023-02-02T20:04:01;102063.78;;;8.16;100.00
4528;BME280;62320;51.520;6.818;2023-02-02T20:24:27;102040.59;;;8.16;100.00
4528;BME280;62320;51.520;6.818;2023-02-02T20:34:34;102038.94;;;8.18;100.00
4528;BME280;62320;51.520;6.818;2023-02-02T20:44:36;102037.38;;;8.23;100.00
4528;BME280;62320;51.520;6.818;2023-02-02T20:54:38;102043.44;;;8.25;100.00
4528;BME280;62320;51.520;6.818;2023-02-02T21:04:39;102059.75;;;8.24;100.00
4528;BME280;62320;51.520;6.818;2023-02-02T21:14:46;102084.78;;;8.26;100.00
4528;BME280;62320;51.520;6.818;2023-02-02T21:24:48;102109.78;;;8.29;100.00
4528;BME280;62320;51.520;6.818;2023-02-02T21:34:49;102107.22;;;8.30;100.00
4528;BME280;62320;51.520;6.818;2023-02-02T21:55:31;102076.41;;;8.33;100.00
4528;BME280;62320;51.520;6.818;2023-02-02T22:05:35;102088.59;;;8.39;100.00
4528;BME280;62320;51.520;6.818;2023-02-02T22:15:37;102085.22;;;8.41;100.00
4528;BME280;62320;51.520;6.818;2023-02-02T22:25:40;102070.69;;;8.43;100.00
4528;BME280;62320;51.520;6.818;2023-02-02T22:35:43;102065.59;;;8.45;100.00
4528;BME280;62320;51.520;6.818;2023-02-02T22:45:45;102070.81;;;8.48;100.00
4528;BME280;62320;51.520;6.818;2023-02-02T22:55:47;102062.19;;;8.47;100.00
4528;BME280;62320;51.520;6.818;2023-02-02T23:05:49;102056.38;;;8.53;100.00
4528;BME280;62320;51.520;6.818;2023-02-02T23:15:50;102067.56;;;8.53;100.00
4528;BME280;62320;51.520;6.818;2023-02-02T23:25:52;102068.47;;;8.55;100.00
4528;BME280;62320;51.520;6.818;2023-02-02T23:35:53;102029.84;;;8.57;100.00
4528;BME280;62320;51.520;6.818;2023-02-02T23:45:54;102015.34;;;8.60;100.00
4528;BME280;62320;51.520;6.818;2023-02-02T23:55:56;101983.56;;;8.61;100.00
